createdAt,value
2024-05-09T00:00:46.489Z,13.78
2024-05-09T00:03:14.333Z,13.38
2024-05-09T00:05:43.561Z,13.11
2024-05-09T00:08:11.915Z,13.13
2024-05-09T00:10:40.816Z,13.69
2024-05-09T00:13:11.002Z,13.76
2024-05-09T00:15:39.369Z,13.55
2024-05-09T00:18:08.575Z,13.57
2024-05-09T00:20:39.692Z,13.08
2024-05-09T00:23:11.622Z,13.10
2024-05-09T00:25:42.848Z,13.14
2024-05-09T00:28:14.224Z,13.34
2024-05-09T00:30:41.875Z,13.44
2024-05-09T00:33:10.772Z,13.51
2024-05-09T00:35:39.656Z,13.62
2024-05-09T00:38:07.477Z,13.64
2024-05-09T00:40:40.684Z,13.40
2024-05-09T00:43:12.523Z,13.41
2024-05-09T00:45:41.242Z,13.52
2024-05-09T00:48:13.410Z,13.15
2024-05-09T00:50:45.103Z,13.48
2024-05-09T00:53:15.406Z,13.19
2024-05-09T00:55:44.648Z,12.17
2024-05-09T00:58:18.204Z,12.66
2024-05-09T01:00:46.396Z,12.40
2024-05-09T01:03:15.084Z,12.16
2024-05-09T01:05:44.273Z,12.77
2024-05-09T01:08:13.067Z,11.80
2024-05-09T01:10:43.711Z,12.32
2024-05-09T01:13:12.792Z,12.76
2024-05-09T01:15:40.515Z,12.71
2024-05-09T01:18:12.209Z,12.48
2024-05-09T01:20:43.877Z,12.97
2024-05-09T01:23:15.575Z,12.84
2024-05-09T01:25:46.129Z,12.72
2024-05-09T01:28:15.140Z,12.97
2024-05-09T01:30:42.922Z,12.86
2024-05-09T01:33:12.094Z,12.02
2024-05-09T01:35:41.941Z,12.09
2024-05-09T01:38:14.102Z,11.37
2024-05-09T01:40:43.831Z,11.94
2024-05-09T01:43:12.223Z,11.52
2024-05-09T01:45:41.184Z,11.17
2024-05-09T01:48:10.469Z,11.20
2024-05-09T01:50:41.732Z,11.18
2024-05-09T01:53:13.828Z,10.75
2024-05-09T01:55:42.547Z,10.95
2024-05-09T01:58:10.507Z,11.60
2024-05-09T02:00:42.155Z,12.11
2024-05-09T02:03:15.870Z,12.26
2024-05-09T02:05:47.543Z,11.70
2024-05-09T02:08:21.492Z,11.47
2024-05-09T02:10:50.705Z,10.99
2024-05-09T02:13:18.549Z,10.58
2024-05-09T02:15:46.742Z,11.22
2024-05-09T02:18:14.605Z,10.40
2024-05-09T02:20:43.160Z,10.61
2024-05-09T02:23:11.408Z,10.79
2024-05-09T02:25:40.838Z,11.37
2024-05-09T02:28:08.597Z,11.01
2024-05-09T02:30:40.496Z,10.90
2024-05-09T02:33:12.112Z,10.85
2024-05-09T02:35:43.025Z,11.02
2024-05-09T02:38:11.951Z,11.27
2024-05-09T02:40:40.495Z,11.46
2024-05-09T02:43:12.013Z,11.28
2024-05-09T02:45:40.807Z,10.78
2024-05-09T02:48:13.656Z,11.54
2024-05-09T02:50:43.919Z,10.93
2024-05-09T02:53:12.325Z,10.32
2024-05-09T02:55:41.830Z,10.37
2024-05-09T02:58:10.300Z,10.92
2024-05-09T03:00:41.542Z,10.61
2024-05-09T03:03:13.595Z,10.20
2024-05-09T03:05:44.534Z,9.71
2024-05-09T03:08:12.755Z,10.28
2024-05-09T03:10:40.558Z,10.87
2024-05-09T03:13:15.924Z,10.57
2024-05-09T03:15:45.116Z,10.68
2024-05-09T03:18:13.456Z,11.19
2024-05-09T03:20:43.824Z,11.03
2024-05-09T03:23:11.793Z,10.87
2024-05-09T03:25:39.364Z,10.55
2024-05-09T03:28:07.218Z,11.22
2024-05-09T03:30:41.178Z,11.01
2024-05-09T03:33:12.471Z,11.02
2024-05-09T03:35:41.123Z,10.84
2024-05-09T03:38:08.851Z,9.59
2024-05-09T03:40:44.392Z,10.33
2024-05-09T03:43:13.617Z,10.51
2024-05-09T03:45:45.553Z,10.68
2024-05-09T03:48:13.515Z,9.67
2024-05-09T03:50:41.503Z,10.39
2024-05-09T03:53:14.872Z,10.88
2024-05-09T03:55:42.594Z,11.00
2024-05-09T03:58:12.654Z,10.66
2024-05-09T04:00:42.116Z,10.53
2024-05-09T04:03:11.886Z,10.96
2024-05-09T04:05:42.716Z,11.21
2024-05-09T04:08:15.384Z,10.37
2024-05-09T04:10:43.275Z,10.56
2024-05-09T04:13:11.894Z,10.77
2024-05-09T04:15:39.815Z,11.17
2024-05-09T04:18:07.678Z,11.05
2024-05-09T04:20:39.185Z,11.02
2024-05-09T04:23:13.843Z,10.73
2024-05-09T04:25:45.140Z,11.18
2024-05-09T04:28:14.439Z,11.37
2024-05-09T04:30:42.771Z,11.22
2024-05-09T04:33:13.189Z,11.15
2024-05-09T04:35:45.606Z,11.09
2024-05-09T04:38:14.616Z,11.30
2024-05-09T04:40:43.030Z,11.12
2024-05-09T04:43:19.535Z,11.27
2024-05-09T04:45:47.325Z,11.17
2024-05-09T04:48:16.375Z,11.23
2024-05-09T04:50:44.549Z,11.30
2024-05-09T04:53:16.615Z,11.25
2024-05-09T04:55:44.623Z,11.39
2024-05-09T04:58:12.312Z,11.29
2024-05-09T05:00:40.889Z,11.35
2024-05-09T05:03:14.191Z,11.42
2024-05-09T05:05:45.355Z,11.37
2024-05-09T05:08:18.868Z,11.36
2024-05-09T05:10:48.552Z,11.51
2024-05-09T05:13:20.003Z,11.47
2024-05-09T05:15:51.555Z,11.50
2024-05-09T05:18:19.685Z,11.66
2024-05-09T05:20:47.900Z,11.57
2024-05-09T05:23:19.895Z,11.71
2024-05-09T05:25:50.404Z,11.61
2024-05-09T05:28:19.467Z,11.67
2024-05-09T05:30:47.133Z,11.68
2024-05-09T05:33:18.151Z,11.90
2024-05-09T05:35:46.155Z,12.13
2024-05-09T05:38:13.690Z,11.85
2024-05-09T05:40:41.434Z,12.07
2024-05-09T05:43:17.339Z,12.13
2024-05-09T05:45:45.874Z,11.75
2024-05-09T05:48:16.248Z,12.17
2024-05-09T05:50:44.704Z,12.37
2024-05-09T05:53:13.007Z,12.32
2024-05-09T05:55:41.636Z,12.45
2024-05-09T05:58:10.747Z,12.42
2024-05-09T06:00:41.035Z,12.53
2024-05-09T06:03:11.441Z,12.60
2024-05-09T06:05:48.391Z,12.68
2024-05-09T06:08:15.955Z,12.75
2024-05-09T06:10:43.739Z,12.91
2024-05-09T06:13:14.406Z,12.92
2024-05-09T06:15:42.344Z,12.47
2024-05-09T06:18:11.730Z,12.77
2024-05-09T06:20:43.266Z,13.10
2024-05-09T06:23:12.835Z,13.22
2024-05-09T06:25:41.813Z,13.26
2024-05-09T06:28:09.768Z,13.31
2024-05-09T06:30:40.450Z,13.28
2024-05-09T06:33:13.844Z,13.41
2024-05-09T06:35:44.404Z,13.08
2024-05-09T06:38:12.551Z,13.05
2024-05-09T06:40:42.741Z,13.07
2024-05-09T06:43:16.964Z,13.27
2024-05-09T06:45:52.679Z,13.55
2024-05-09T06:48:21.438Z,13.66
2024-05-09T06:50:49.998Z,13.81
2024-05-09T06:53:22.113Z,13.75
2024-05-09T06:55:50.261Z,14.02
2024-05-09T06:58:17.782Z,14.10
2024-05-09T07:00:45.352Z,13.99
2024-05-09T07:03:17.810Z,14.16
2024-05-09T07:05:48.627Z,14.23
2024-05-09T07:08:18.148Z,14.30
2024-05-09T07:10:46.799Z,14.47
2024-05-09T07:13:15.324Z,14.25
2024-05-09T07:15:43.655Z,14.39
2024-05-09T07:18:18.287Z,14.54
2024-05-09T07:20:49.455Z,14.60
2024-05-09T07:23:18.544Z,14.48
2024-05-09T07:25:46.542Z,14.57
2024-05-09T07:28:19.349Z,14.88
2024-05-09T07:30:47.336Z,14.99
2024-05-09T07:33:22.083Z,15.03
2024-05-09T07:35:51.488Z,15.33
2024-05-09T07:38:20.168Z,15.92
2024-05-09T07:40:48.362Z,16.87
2024-05-09T07:43:16.503Z,17.45
2024-05-09T07:45:52.282Z,17.08
2024-05-09T07:52:38.820Z,18.86
2024-05-09T07:53:47.795Z,18.80
2024-05-09T07:56:21.083Z,19.86
2024-05-09T07:58:52.133Z,20.56
2024-05-09T08:01:20.504Z,21.30
2024-05-09T08:03:50.623Z,21.00
2024-05-09T08:06:18.377Z,20.48
2024-05-09T08:08:47.706Z,21.30
2024-05-09T08:11:15.641Z,21.75
2024-05-09T08:13:43.213Z,21.97
2024-05-09T08:16:11.223Z,22.26
2024-05-09T08:18:39.610Z,21.83
2024-05-09T08:21:07.307Z,22.01
2024-05-09T08:23:36.443Z,22.65
2024-05-09T08:26:04.100Z,22.85
2024-05-09T08:28:31.554Z,23.40
2024-05-09T08:31:00.011Z,23.53
2024-05-09T08:33:30.399Z,23.46
2024-05-09T08:35:58.450Z,24.04
2024-05-09T08:38:25.899Z,22.28
2024-05-09T08:40:53.787Z,23.91
2024-05-09T08:43:26.516Z,22.68
2024-05-09T08:45:54.205Z,23.53
2024-05-09T08:48:23.531Z,23.45
2024-05-09T08:50:53.502Z,24.84
2024-05-09T08:53:21.258Z,24.55
2024-05-09T08:55:51.868Z,24.90
2024-05-09T08:58:20.051Z,24.84
2024-05-09T09:00:48.677Z,25.04
2024-05-09T09:03:26.872Z,25.44
2024-05-09T09:06:11.465Z,24.39
2024-05-09T09:08:40.149Z,24.20
2024-05-09T09:11:07.926Z,24.35
2024-05-09T09:13:35.420Z,25.05
2024-05-09T09:16:04.132Z,25.86
2024-05-09T09:18:32.808Z,25.47
2024-05-09T09:21:03.376Z,25.62
2024-05-09T09:23:31.101Z,25.38
2024-05-09T09:26:00.123Z,24.97
2024-05-09T09:28:28.260Z,26.51
2024-05-09T09:31:03.383Z,27.11
2024-05-09T09:33:36.166Z,24.48
2024-05-09T09:36:05.816Z,25.78
2024-05-09T09:38:37.640Z,24.34
2024-05-09T09:41:08.659Z,26.06
2024-05-09T09:43:36.854Z,26.16
2024-05-09T09:46:08.733Z,25.54
2024-05-09T09:48:40.516Z,25.35
2024-05-09T09:51:08.283Z,25.66
2024-05-09T09:53:38.257Z,24.45
2024-05-09T09:56:08.177Z,23.99
2024-05-09T09:58:38.930Z,25.67
2024-05-09T10:01:06.506Z,24.40
2024-05-09T10:03:34.460Z,25.48
2024-05-09T10:06:04.484Z,25.60
2024-05-09T10:08:32.164Z,25.25
2024-05-09T10:11:04.367Z,23.89
2024-05-09T10:13:34.838Z,25.07
2024-05-09T10:16:12.316Z,25.76
2024-05-09T10:18:41.658Z,24.89
2024-05-09T10:21:20.046Z,25.69
2024-05-09T10:24:03.634Z,25.80
2024-05-09T10:26:36.945Z,24.79
2024-05-09T10:29:30.779Z,24.05
2024-05-09T10:31:59.911Z,23.99
2024-05-09T10:34:34.261Z,25.02
2024-05-09T10:37:04.971Z,24.39
2024-05-09T10:39:37.264Z,24.74
2024-05-09T10:42:09.978Z,24.45
2024-05-09T10:44:38.117Z,25.04
2024-05-09T10:47:05.708Z,25.70
2024-05-09T10:49:33.482Z,25.31
2024-05-09T10:52:03.840Z,25.24
2024-05-09T10:54:41.133Z,26.04
2024-05-09T10:57:08.612Z,25.24
2024-05-09T10:59:39.323Z,24.58
2024-05-09T11:02:10.324Z,25.41
2024-05-09T11:04:41.182Z,24.38
2024-05-09T11:07:13.549Z,23.66
2024-05-09T11:09:43.153Z,24.73
2024-05-09T11:12:11.033Z,24.36
2024-05-09T11:14:39.005Z,24.78
2024-05-09T11:17:08.988Z,24.87
2024-05-09T11:19:42.071Z,24.48
2024-05-09T11:22:09.829Z,23.81
2024-05-09T11:24:37.583Z,24.88
2024-05-09T11:27:06.325Z,24.03
2024-05-09T11:29:42.307Z,23.66
2024-05-09T11:32:12.123Z,24.68
2024-05-09T11:34:41.826Z,23.95
2024-05-09T11:37:10.842Z,24.60
2024-05-09T11:39:38.411Z,24.17
2024-05-09T11:42:06.247Z,23.89
2024-05-09T11:44:33.705Z,24.49
2024-05-09T11:47:01.312Z,23.03
2024-05-09T11:49:28.892Z,23.07
2024-05-09T11:51:56.603Z,22.43
2024-05-09T11:54:24.337Z,22.63
2024-05-09T11:56:51.985Z,23.21
2024-05-09T11:59:19.446Z,24.39
2024-05-09T12:01:47.000Z,24.13
2024-05-09T12:04:14.826Z,24.65
2024-05-09T12:06:45.434Z,24.52
2024-05-09T12:09:13.082Z,24.77
2024-05-09T12:11:40.605Z,24.34
2024-05-09T12:14:08.187Z,24.86
2024-05-09T12:16:35.853Z,24.79
2024-05-09T12:19:03.519Z,24.82
2024-05-09T12:21:31.133Z,24.56
2024-05-09T12:23:58.687Z,25.04
2024-05-09T12:26:26.510Z,24.13
2024-05-09T12:28:54.105Z,23.65
2024-05-09T12:31:21.915Z,23.77
2024-05-09T12:33:49.491Z,24.42
2024-05-09T12:36:17.060Z,24.35
2024-05-09T12:38:44.517Z,23.07
2024-05-09T12:41:12.021Z,23.72
2024-05-09T12:43:39.557Z,24.25
2024-05-09T12:46:07.297Z,24.26
2024-05-09T12:48:34.918Z,24.46
2024-05-09T12:51:02.613Z,24.61
2024-05-09T12:53:30.131Z,24.50
2024-05-09T12:56:01.848Z,24.15
2024-05-09T12:58:31.024Z,24.16
2024-05-09T13:00:59.252Z,23.32
2024-05-09T13:03:26.865Z,23.37
2024-05-09T13:05:54.827Z,22.33
2024-05-09T13:08:22.793Z,22.12
2024-05-09T13:10:50.940Z,21.82
2024-05-09T13:13:18.707Z,22.29
2024-05-09T13:15:46.256Z,21.85
2024-05-09T13:18:14.354Z,22.25
2024-05-09T13:20:41.950Z,22.36
2024-05-09T13:23:09.554Z,22.23
2024-05-09T13:25:37.876Z,22.10
2024-05-09T13:28:07.591Z,22.24
2024-05-09T13:30:40.306Z,22.60
2024-05-09T13:33:11.872Z,22.96
2024-05-09T13:35:47.491Z,23.36
2024-05-09T13:38:20.137Z,23.53
2024-05-09T13:40:49.209Z,23.66
2024-05-09T13:43:17.816Z,23.11
2024-05-09T13:45:45.674Z,23.77
2024-05-09T13:48:13.457Z,23.75
2024-05-09T13:50:41.421Z,24.02
2024-05-09T13:53:09.301Z,23.19
2024-05-09T13:55:40.645Z,23.42
2024-05-09T13:58:09.582Z,23.72
2024-05-09T14:00:45.204Z,24.01
2024-05-09T14:03:19.307Z,23.93
2024-05-09T14:05:50.208Z,23.99
2024-05-09T14:08:19.839Z,24.06
2024-05-09T14:10:51.166Z,24.09
2024-05-09T14:13:19.591Z,23.97
2024-05-09T14:15:47.585Z,24.27
2024-05-09T14:18:15.432Z,24.15
2024-05-09T14:20:43.558Z,23.88
2024-05-09T14:23:11.349Z,23.94
2024-05-09T14:25:42.307Z,23.73
2024-05-09T14:28:12.844Z,23.01
2024-05-09T14:30:42.898Z,23.53
2024-05-09T14:33:11.721Z,22.69
2024-05-09T14:35:39.571Z,22.95
2024-05-09T14:38:08.725Z,23.26
2024-05-09T14:40:42.291Z,23.15
2024-05-09T14:43:15.463Z,23.22
2024-05-09T14:45:46.629Z,22.93
2024-05-09T14:48:15.359Z,23.17
2024-05-09T14:50:43.759Z,23.17
2024-05-09T14:53:13.674Z,23.06
2024-05-09T14:55:43.000Z,23.37
2024-05-09T14:58:12.736Z,22.81
2024-05-09T15:00:46.435Z,23.01
2024-05-09T15:03:19.645Z,23.21
2024-05-09T15:05:48.214Z,22.97
2024-05-09T15:08:18.226Z,22.63
2024-05-09T15:10:47.146Z,22.05
2024-05-09T15:13:16.712Z,21.75
2024-05-09T15:15:45.248Z,21.63
2024-05-09T15:18:14.317Z,21.86
2024-05-09T15:20:44.767Z,22.12
2024-05-09T15:23:12.452Z,22.08
2024-05-09T15:25:40.360Z,21.92
2024-05-09T15:28:08.286Z,21.94
2024-05-09T15:30:37.071Z,22.17
2024-05-09T15:33:06.798Z,22.09
2024-05-09T15:35:36.223Z,22.38
2024-05-09T15:38:04.554Z,22.48
2024-05-09T15:40:39.070Z,22.82
2024-05-09T15:43:10.910Z,22.65
2024-05-09T15:45:41.016Z,22.67
2024-05-09T15:48:10.858Z,22.56
2024-05-09T15:50:41.428Z,22.46
2024-05-09T15:53:12.575Z,21.67
2024-05-09T15:55:42.178Z,21.83
2024-05-09T15:58:10.572Z,21.64
2024-05-09T16:00:41.724Z,21.70
2024-05-09T16:03:13.455Z,21.36
2024-05-09T16:05:46.558Z,21.65
2024-05-09T16:08:14.798Z,21.39
2024-05-09T16:10:45.831Z,21.47
2024-05-09T16:13:15.766Z,21.22
2024-05-09T16:15:44.308Z,21.15
2024-05-09T16:18:12.412Z,20.96
2024-05-09T16:20:42.206Z,20.85
2024-05-09T16:23:11.262Z,21.34
2024-05-09T16:25:41.720Z,21.23
2024-05-09T16:28:10.808Z,21.37
2024-05-09T16:30:39.932Z,21.75
2024-05-09T16:33:08.720Z,21.18
2024-05-09T16:35:39.177Z,21.07
2024-05-09T16:38:06.761Z,21.04
2024-05-09T16:40:38.951Z,20.98
2024-05-09T16:43:13.170Z,21.37
2024-05-09T16:45:46.129Z,21.46
2024-05-09T16:48:14.255Z,20.97
2024-05-09T16:50:42.398Z,21.00
2024-05-09T16:53:10.219Z,21.37
2024-05-09T16:55:38.369Z,21.23
2024-05-09T16:58:08.429Z,21.14
2024-05-09T17:00:41.385Z,21.31
2024-05-09T17:03:15.158Z,21.23
2024-05-09T17:05:48.494Z,21.14
2024-05-09T17:08:20.578Z,21.13
2024-05-09T17:10:49.345Z,21.19
2024-05-09T17:13:17.719Z,21.43
2024-05-09T17:15:45.562Z,21.08
2024-05-09T17:18:13.091Z,21.04
2024-05-09T17:20:40.680Z,20.66
2024-05-09T17:23:13.290Z,20.73
2024-05-09T17:25:42.697Z,21.06
2024-05-09T17:28:10.994Z,21.33
2024-05-09T17:30:40.704Z,21.51
2024-05-09T17:33:11.189Z,21.44
2024-05-09T17:35:39.945Z,21.47
2024-05-09T17:38:07.966Z,20.95
2024-05-09T17:40:37.622Z,21.12
2024-05-09T17:43:09.410Z,20.87
2024-05-09T17:45:40.849Z,20.86
2024-05-09T17:48:11.055Z,20.56
2024-05-09T17:50:40.101Z,20.54
2024-05-09T17:53:08.676Z,20.79
2024-05-09T17:55:37.138Z,20.40
2024-05-09T17:58:05.865Z,20.14
2024-05-09T18:00:39.216Z,20.20
2024-05-09T18:03:12.038Z,20.20
2024-05-09T18:05:41.611Z,19.83
2024-05-09T18:08:09.734Z,19.65
2024-05-09T18:10:39.702Z,19.61
2024-05-09T18:13:09.374Z,19.66
2024-05-09T18:15:38.292Z,19.39
2024-05-09T18:18:07.564Z,19.85
2024-05-09T18:20:42.288Z,19.67
2024-05-09T18:23:16.470Z,19.67
2024-05-09T18:25:46.730Z,19.89
2024-05-09T18:28:15.614Z,20.13
2024-05-09T18:30:43.410Z,19.96
2024-05-09T18:33:12.076Z,19.85
2024-05-09T18:35:43.798Z,19.70
2024-05-09T18:38:11.612Z,19.44
2024-05-09T18:40:41.054Z,19.81
2024-05-09T18:43:10.509Z,19.46
2024-05-09T18:45:38.820Z,19.29
2024-05-09T18:48:09.117Z,19.08
2024-05-09T18:50:40.109Z,19.39
2024-05-09T18:53:11.805Z,19.58
2024-05-09T18:55:41.715Z,19.52
2024-05-09T18:58:09.319Z,19.57
2024-05-09T19:00:39.650Z,19.69
2024-05-09T19:03:12.408Z,19.63
2024-05-09T19:05:43.871Z,19.45
2024-05-09T19:08:12.870Z,19.67
2024-05-09T19:10:41.201Z,19.57
2024-05-09T19:13:12.364Z,19.47
2024-05-09T19:15:43.240Z,19.40
2024-05-09T19:18:13.961Z,19.47
2024-05-09T19:20:42.485Z,19.30
2024-05-09T19:23:11.544Z,19.22
2024-05-09T19:25:39.209Z,19.42
2024-05-09T19:28:07.079Z,19.41
2024-05-09T19:30:40.071Z,19.43
2024-05-09T19:33:12.725Z,19.42
2024-05-09T19:35:42.792Z,19.38
2024-05-09T19:38:11.137Z,19.53
2024-05-09T19:40:39.084Z,19.36
2024-05-09T19:43:07.043Z,19.30
2024-05-09T19:45:35.787Z,18.77
2024-05-09T19:48:06.333Z,18.98
2024-05-09T19:50:41.479Z,18.96
2024-05-09T19:53:13.300Z,19.02
2024-05-09T19:55:42.116Z,19.23
2024-05-09T19:58:10.719Z,18.67
2024-05-09T20:00:41.746Z,19.00
2024-05-09T20:03:15.307Z,19.19
2024-05-09T20:05:46.594Z,19.14
2024-05-09T20:08:14.792Z,19.12
2024-05-09T20:10:42.541Z,19.28
2024-05-09T20:13:10.253Z,19.19
2024-05-09T20:15:38.279Z,18.96
2024-05-09T20:18:06.734Z,18.92
2024-05-09T20:20:39.571Z,19.16
2024-05-09T20:23:11.976Z,19.10
2024-05-09T20:25:40.510Z,19.16
2024-05-09T20:28:08.431Z,18.89
2024-05-09T20:30:36.749Z,18.92
2024-05-09T20:33:07.438Z,19.00
2024-05-09T20:35:36.418Z,18.77
2024-05-09T20:38:04.620Z,18.75
2024-05-09T20:40:36.731Z,18.90
2024-05-09T20:43:09.259Z,18.77
2024-05-09T20:45:37.416Z,18.92
2024-05-09T20:48:06.354Z,18.31
2024-05-09T20:50:39.268Z,18.73
2024-05-09T20:53:12.137Z,18.56
2024-05-09T20:55:40.611Z,18.29
2024-05-09T20:58:09.928Z,18.44
2024-05-09T21:00:41.430Z,18.43
2024-05-09T21:03:13.501Z,18.35
2024-05-09T21:05:42.160Z,18.40
2024-05-09T21:08:09.755Z,18.33
2024-05-09T21:10:37.804Z,18.24
2024-05-09T21:13:06.771Z,18.38
2024-05-09T21:15:35.847Z,18.10
2024-05-09T21:18:04.586Z,17.79
2024-05-09T21:20:34.582Z,18.31
2024-05-09T21:23:02.869Z,18.11
2024-05-09T21:25:31.146Z,17.97
2024-05-09T21:27:58.985Z,17.93
2024-05-09T21:30:33.138Z,17.53
2024-05-09T21:33:10.582Z,17.80
2024-05-09T21:35:40.905Z,18.01
2024-05-09T21:38:08.714Z,17.79
2024-05-09T21:40:37.911Z,17.64
2024-05-09T21:43:09.367Z,17.84
2024-05-09T21:45:37.416Z,17.56
2024-05-09T21:48:07.264Z,17.60
2024-05-09T21:50:40.316Z,17.74
2024-05-09T21:53:11.920Z,17.32
2024-05-09T21:55:40.097Z,17.26
2024-05-09T21:58:08.015Z,17.83
2024-05-09T22:00:39.272Z,17.56
2024-05-09T22:03:08.467Z,17.43
2024-05-09T22:05:37.661Z,17.01
2024-05-09T22:08:05.969Z,17.34
2024-05-09T22:10:35.905Z,17.13
2024-05-09T22:13:06.293Z,17.53
2024-05-09T22:15:37.459Z,17.35
2024-05-09T22:18:07.303Z,17.44
2024-05-09T22:20:38.472Z,17.38
2024-05-09T22:23:08.598Z,16.91
2024-05-09T22:25:38.750Z,17.54
2024-05-09T22:28:06.998Z,17.41
2024-05-09T22:30:38.294Z,17.18
2024-05-09T22:33:08.975Z,16.97
2024-05-09T22:35:37.823Z,17.54
2024-05-09T22:38:05.593Z,17.41
2024-05-09T22:40:42.716Z,16.88
2024-05-09T22:43:24.298Z,17.28
2024-05-09T22:45:54.744Z,17.35
2024-05-09T22:48:24.359Z,16.80
2024-05-09T22:50:54.253Z,16.70
2024-05-09T22:53:25.025Z,16.80
2024-05-09T22:55:53.337Z,16.36
2024-05-09T22:58:21.274Z,17.17
2024-05-09T23:00:49.077Z,17.16
2024-05-09T23:03:16.930Z,17.09
2024-05-09T23:05:44.518Z,16.67
2024-05-09T23:08:11.966Z,17.17
2024-05-09T23:10:39.530Z,16.86
2024-05-09T23:13:07.995Z,17.18
2024-05-09T23:15:39.837Z,17.02
2024-05-09T23:18:07.966Z,16.81
2024-05-09T23:20:38.882Z,16.97
2024-05-09T23:23:09.426Z,17.21
2024-05-09T23:25:38.035Z,17.22
2024-05-09T23:28:06.137Z,17.23
2024-05-09T23:30:38.491Z,17.29
2024-05-09T23:33:11.774Z,16.89
2024-05-09T23:35:43.435Z,16.31
2024-05-09T23:38:11.449Z,16.52
2024-05-09T23:40:41.046Z,16.54
2024-05-09T23:43:11.365Z,16.90
2024-05-09T23:45:39.994Z,17.17
2024-05-09T23:48:08.914Z,17.07
2024-05-09T23:50:38.519Z,16.99
2024-05-09T23:53:09.201Z,17.12
2024-05-09T23:55:38.112Z,16.97
2024-05-09T23:58:07.003Z,16.97
